Time;durP1;ratioP1;P1;durP2;ratioP2;P2;SDS_P1;SDS_P2;PMS_P1;PMS_P2;Temp;Humidity;BMP_temperature;BMP_pressure;BME280_temperature;BME280_humidity;BME280_pressure;Samples;Min_cycle;Max_cycle;Signal;HPM_P1;HPM_P2
2021/09/09 00:01:43;;;;;;;8.70;7.18;;;;;;;15.12;83.30;99483.03;5100045;28;20055;-65
2021/09/09 00:04:29;;;;;;;6.95;5.88;;;;;;;15.15;83.10;99482.94;5101507;28;20217;-64
2021/09/09 00:07:15;;;;;;;9.63;6.78;;;;;;;15.19;82.94;99481.88;5085118;28;20095;-64
2021/09/09 00:10:00;;;;;;;6.88;6.10;;;;;;;15.18;82.99;99477.59;5102918;28;20024;-66
2021/09/09 00:12:46;;;;;;;8.70;6.88;;;;;;;15.23;83.35;99478.22;5102417;28;20062;-65
2021/09/09 00:15:32;;;;;;;8.60;6.55;;;;;;;15.23;83.15;99478.22;5102291;28;20031;-66
2021/09/09 00:18:18;;;;;;;7.57;6.47;;;;;;;15.22;82.88;99473.06;5087744;28;20271;-66
2021/09/09 00:21:04;;;;;;;10.35;6.97;;;;;;;15.19;83.32;99471.44;5103415;28;20028;-66
2021/09/09 00:23:50;;;;;;;10.68;6.10;;;;;;;15.18;82.98;99481.03;5101318;28;20042;-65
2021/09/09 00:26:36;;;;;;;8.48;6.30;;;;;;;15.19;83.14;99481.88;5102263;28;20020;-64
2021/09/09 00:29:22;;;;;;;9.05;6.30;;;;;;;15.21;83.04;99487.03;5102907;28;20069;-65
2021/09/09 00:32:08;;;;;;;8.55;6.90;;;;;;;15.21;82.74;99489.66;5103231;28;20032;-65
2021/09/09 00:34:54;;;;;;;8.20;7.05;;;;;;;15.15;83.58;99485.56;5101735;28;20043;-65
2021/09/09 00:37:41;;;;;;;8.48;6.75;;;;;;;15.20;83.10;99470.53;5102071;28;20028;-65
2021/09/09 00:40:27;;;;;;;8.20;6.40;;;;;;;15.21;83.20;99464.41;5092536;28;20395;-65
2021/09/09 00:43:13;;;;;;;8.05;7.13;;;;;;;15.12;83.40;99470.00;5080494;28;20058;-65
2021/09/09 00:45:58;;;;;;;10.68;6.57;;;;;;;15.17;83.04;99465.44;5065238;28;20028;-65
2021/09/09 00:48:44;;;;;;;9.32;6.93;;;;;;;15.13;83.05;99472.53;5067409;28;20405;-66
2021/09/09 00:51:30;;;;;;;8.30;6.65;;;;;;;15.10;83.36;99467.47;5067573;28;20088;-65
2021/09/09 00:54:16;;;;;;;11.05;6.70;;;;;;;15.08;83.86;99468.44;5065270;28;20060;-65
2021/09/09 00:57:04;;;;;;;8.15;6.53;;;;;;;14.79;83.43;99415.78;5080193;28;20214;-65
2021/09/09 00:59:52;;;;;;;9.30;6.03;;;;;;;14.80;83.42;99413.13;5073440;28;20043;-65
2021/09/09 01:02:38;;;;;;;10.13;7.28;;;;;;;15.02;83.45;99456.50;5080495;28;20303;-63
2021/09/09 01:05:24;;;;;;;7.63;6.18;;;;;;;15.01;83.45;99458.28;5082843;28;20013;-64
2021/09/09 01:08:10;;;;;;;9.20;6.55;;;;;;;15.00;83.66;99451.38;5081804;28;20024;-65
2021/09/09 01:10:58;;;;;;;9.27;7.03;;;;;;;14.97;83.60;99472.38;5081673;28;20063;-64
2021/09/09 01:13:52;;;;;;;10.82;7.40;;;;;;;14.96;83.62;99444.63;5080037;28;20029;-64
2021/09/09 01:16:39;;;;;;;8.68;6.50;;;;;;;14.93;83.82;99449.09;5081878;28;20054;-65
2021/09/09 01:19:25;;;;;;;10.30;7.07;;;;;;;14.94;83.44;99448.19;5080921;28;20021;-64
2021/09/09 01:22:10;;;;;;;8.85;7.00;;;;;;;14.92;83.70;99450.00;5080871;28;20044;-65
2021/09/09 01:24:58;;;;;;;7.57;6.63;;;;;;;14.90;83.72;99444.88;5081636;28;20332;-65
2021/09/09 01:27:43;;;;;;;7.65;6.32;;;;;;;14.89;83.89;99444.94;5080546;28;20348;-65
2021/09/09 01:30:30;;;;;;;11.80;7.03;;;;;;;14.91;83.99;99443.97;5081480;28;20027;-64
2021/09/09 01:33:15;;;;;;;10.18;6.43;;;;;;;14.92;84.01;99448.28;5082072;28;20210;-65
2021/09/09 01:36:01;;;;;;;8.10;6.63;;;;;;;14.89;83.55;99452.75;5081037;28;20034;-64
2021/09/09 01:38:47;;;;;;;8.95;6.63;;;;;;;14.83;84.57;99441.66;5079725;28;20031;-64
2021/09/09 01:41:33;;;;;;;10.88;6.78;;;;;;;14.82;84.00;99440.00;5099299;28;20044;-64
2021/09/09 01:44:19;;;;;;;8.40;7.25;;;;;;;14.83;83.62;99448.66;5102045;28;20044;-65
2021/09/09 01:47:06;;;;;;;9.75;6.78;;;;;;;14.87;84.07;99447.59;5101134;28;20024;-65
2021/09/09 01:49:52;;;;;;;7.75;6.90;;;;;;;14.82;83.68;99439.13;5101571;28;20038;-65
2021/09/09 01:52:38;;;;;;;8.05;6.72;;;;;;;14.84;84.00;99437.31;5101521;28;20317;-65
2021/09/09 01:55:24;;;;;;;6.55;5.53;;;;;;;14.83;83.61;99417.38;5099549;28;20031;-65
2021/09/09 01:58:10;;;;;;;10.68;7.20;;;;;;;14.88;83.33;99433.66;5100533;28;20209;-65
2021/09/09 02:00:59;;;;;;;9.82;6.38;;;;;;;14.91;83.24;99435.31;5101821;28;20050;-65
2021/09/09 02:03:45;;;;;;;8.30;6.50;;;;;;;14.88;83.48;99438.00;5101381;28;20028;-65
2021/09/09 02:06:33;;;;;;;9.57;7.13;;;;;;;14.84;84.06;99435.53;5101109;28;20020;-65
2021/09/09 02:09:18;;;;;;;9.73;6.28;;;;;;;14.86;83.77;99429.44;5100013;28;20220;-65
2021/09/09 02:12:04;;;;;;;9.15;6.43;;;;;;;14.90;83.42;99431.00;5101710;28;20031;-65
2021/09/09 02:14:50;;;;;;;7.68;6.65;;;;;;;14.97;83.26;99435.03;5104614;28;20024;-65
2021/09/09 02:17:36;;;;;;;9.95;6.90;;;;;;;14.97;83.36;99429.81;5102575;28;20121;-66
2021/09/09 02:20:22;;;;;;;8.07;6.18;;;;;;;14.98;83.11;99421.91;5104136;28;20036;-66
2021/09/09 02:23:08;;;;;;;9.38;6.97;;;;;;;14.92;83.89;99430.00;5104327;28;20415;-65
2021/09/09 02:25:54;;;;;;;7.78;6.57;;;;;;;14.97;83.77;99427.19;5105297;28;20024;-65
2021/09/09 02:28:40;;;;;;;10.65;6.47;;;;;;;15.00;83.59;99425.28;5104923;28;20051;-65
2021/09/09 02:31:26;;;;;;;8.57;6.07;;;;;;;14.97;83.33;99433.25;5105272;28;20244;-66
2021/09/09 02:34:12;;;;;;;10.82;6.60;;;;;;;14.97;83.39;99427.19;5089580;28;20217;-64
2021/09/09 02:36:57;;;;;;;7.95;6.40;;;;;;;15.02;82.99;99422.59;5105292;28;20028;-67
2021/09/09 02:39:46;;;;;;;7.05;6.35;;;;;;;15.02;83.26;99420.00;5105300;28;20031;-67
2021/09/09 02:42:33;;;;;;;8.05;6.40;;;;;;;15.05;82.99;99426.84;5104643;28;20028;-67
2021/09/09 02:45:19;;;;;;;7.20;6.05;;;;;;;15.04;82.82;99430.41;5104920;28;20028;-67
2021/09/09 02:48:05;;;;;;;9.52;6.70;;;;;;;15.01;82.37;99415.72;5103913;28;20028;-67
2021/09/09 02:50:51;;;;;;;8.20;6.35;;;;;;;15.09;82.83;99431.03;5103447;28;20207;-67
2021/09/09 02:53:37;;;;;;;8.70;6.68;;;;;;;15.05;82.82;99424.25;5091826;28;20032;-65
2021/09/09 02:56:24;;;;;;;7.88;6.10;;;;;;;15.10;82.35;99427.50;5103143;28;20024;-65
2021/09/09 02:59:09;;;;;;;8.95;6.43;;;;;;;15.15;82.48;99428.16;5103722;28;20194;-65
2021/09/09 03:01:55;;;;;;;7.70;6.38;;;;;;;15.09;82.70;99431.03;5093526;28;20087;-67
2021/09/09 03:04:41;;;;;;;9.57;6.40;;;;;;;15.10;82.62;99424.91;5093974;28;20027;-66
2021/09/09 03:07:27;;;;;;;6.90;6.15;;;;;;;15.11;82.66;99431.81;5104524;28;20035;-65
2021/09/09 03:10:13;;;;;;;8.20;6.28;;;;;;;15.15;82.13;99433.38;5103977;28;20069;-65
2021/09/09 03:12:59;;;;;;;7.35;6.15;;;;;;;15.15;82.01;99428.16;5104511;28;20024;-65
2021/09/09 03:15:44;;;;;;;9.85;6.55;;;;;;;15.07;82.01;99420.66;5104140;28;20035;-64
2021/09/09 03:18:30;;;;;;;7.13;5.85;;;;;;;15.17;82.06;99431.53;5104416;28;20058;-64
2021/09/09 03:21:16;;;;;;;8.30;6.38;;;;;;;15.18;82.04;99433.25;5103861;28;20020;-65
2021/09/09 03:24:02;;;;;;;7.03;5.90;;;;;;;15.11;82.52;99437.88;5103383;28;20028;-66
2021/09/09 03:26:50;;;;;;;9.25;6.45;;;;;;;15.15;82.58;99441.19;5103594;28;20100;-66
2021/09/09 03:29:36;;;;;;;8.55;6.45;;;;;;;15.08;82.89;99432.78;5104022;28;20016;-66
2021/09/09 03:32:22;;;;;;;8.30;5.82;;;;;;;15.10;82.63;99436.16;5103119;28;20055;-66
2021/09/09 03:35:08;;;;;;;11.50;6.47;;;;;;;15.13;82.80;99435.19;5103694;28;20020;-66
2021/09/09 03:37:54;;;;;;;8.93;6.07;;;;;;;15.11;82.61;99443.09;5086208;28;20035;-65
2021/09/09 03:40:41;;;;;;;7.53;5.80;;;;;;;15.17;82.26;99444.56;5089002;28;20048;-66
2021/09/09 03:43:27;;;;;;;7.50;6.55;;;;;;;15.19;82.32;99440.13;5081887;28;20047;-66
2021/09/09 03:46:13;;;;;;;8.68;6.15;;;;;;;15.25;82.31;99444.22;5082072;28;20036;-66
2021/09/09 03:48:59;;;;;;;8.27;6.40;;;;;;;15.23;82.54;99453.91;5081350;28;20035;-65
2021/09/09 03:51:45;;;;;;;7.70;6.57;;;;;;;15.22;82.84;99450.44;5083118;28;20040;-65
2021/09/09 03:54:30;;;;;;;7.85;6.15;;;;;;;15.22;82.77;99450.44;5081905;28;20036;-65
2021/09/09 03:57:16;;;;;;;11.00;6.38;;;;;;;15.27;82.19;99452.84;5060203;28;20039;-65
2021/09/09 04:00:03;;;;;;;8.63;6.38;;;;;;;15.09;83.03;99441.44;5076196;28;20031;-65
2021/09/09 04:02:50;;;;;;;9.20;6.40;;;;;;;15.15;82.72;99454.25;5073419;28;20056;-66
2021/09/09 04:05:36;;;;;;;12.60;6.72;;;;;;;15.21;82.77;99453.13;5073617;28;20099;-65
2021/09/09 04:08:22;;;;;;;8.05;6.28;;;;;;;15.18;82.22;99459.31;5079720;28;20052;-65
2021/09/09 04:11:08;;;;;;;9.68;6.07;;;;;;;15.23;82.32;99453.91;5082091;28;20013;-66
2021/09/09 04:13:54;;;;;;;11.00;6.75;;;;;;;15.17;83.10;99462.84;5081376;28;20245;-65
2021/09/09 04:16:40;;;;;;;7.82;5.53;;;;;;;15.18;82.74;99456.72;5070620;28;20024;-65
2021/09/09 04:19:26;;;;;;;9.13;6.13;;;;;;;15.18;83.00;99452.34;5078766;28;20073;-66
2021/09/09 04:22:12;;;;;;;7.18;5.75;;;;;;;15.30;82.20;99463.13;5067995;28;20323;-65
2021/09/09 04:24:58;;;;;;;8.90;6.68;;;;;;;15.30;82.39;99468.34;5080773;28;20051;-65
2021/09/09 04:27:44;;;;;;;9.80;6.60;;;;;;;15.26;82.42;99475.47;5080292;28;20024;-62
2021/09/09 04:30:30;;;;;;;9.85;5.93;;;;;;;15.31;82.35;99478.72;5081831;28;20037;-62
2021/09/09 04:33:16;;;;;;;10.93;5.97;;;;;;;15.29;82.76;99474.47;5081686;28;20107;-64
2021/09/09 04:36:09;;;;;;;10.65;7.10;;;;;;;15.30;82.74;99477.03;5079421;28;20047;-63
2021/09/09 04:39:00;;;;;;;8.52;6.68;;;;;;;15.30;82.60;99484.00;5072841;28;20031;-61
2021/09/09 04:41:46;;;;;;;7.70;6.50;;;;;;;15.31;82.77;99478.72;5081187;28;20024;-63
2021/09/09 04:44:31;;;;;;;11.13;6.38;;;;;;;15.27;83.03;99473.72;5080873;28;20036;-63
2021/09/09 04:47:17;;;;;;;8.90;6.35;;;;;;;15.29;82.89;99482.31;5078612;28;20126;-63
2021/09/09 04:50:04;;;;;;;7.68;6.80;;;;;;;15.35;82.55;99471.63;5081044;28;20020;-63
2021/09/09 04:52:50;;;;;;;9.80;6.10;;;;;;;15.29;83.03;99467.53;5081648;28;20236;-63
2021/09/09 04:55:36;;;;;;;9.88;6.45;;;;;;;15.31;82.51;99468.28;5080658;28;20036;-63
2021/09/09 04:58:22;;;;;;;7.72;6.15;;;;;;;15.38;82.46;99473.22;5079351;28;20024;-63
2021/09/09 05:01:08;;;;;;;8.80;6.60;;;;;;;15.36;83.19;99466.34;5076565;28;20085;-65
2021/09/09 05:03:54;;;;;;;8.95;6.85;;;;;;;15.28;83.20;99465.81;5081193;28;20052;-65
2021/09/09 05:06:40;;;;;;;9.73;6.47;;;;;;;15.40;83.15;99463.59;5082320;28;20213;-65
2021/09/09 05:09:25;;;;;;;10.38;6.55;;;;;;;15.36;83.36;99466.34;5081186;28;20102;-66
2021/09/09 05:12:11;;;;;;;9.48;6.28;;;;;;;15.36;83.29;99462.84;5081178;28;20052;-65
2021/09/09 05:14:57;;;;;;;9.63;6.63;;;;;;;15.41;82.86;99473.13;5079750;28;20350;-63
2021/09/09 05:17:43;;;;;;;8.48;6.85;;;;;;;15.44;82.62;99471.19;5066431;28;20376;-64
2021/09/09 05:20:29;;;;;;;6.60;5.60;;;;;;;15.38;83.17;99462.78;5078954;28;20032;-65
2021/09/09 05:23:15;;;;;;;10.25;6.15;;;;;;;15.42;82.97;99462.59;5080138;28;20036;-65
2021/09/09 05:26:01;;;;;;;10.00;6.93;;;;;;;15.49;83.07;99473.59;5080020;28;20074;-66
2021/09/09 05:28:47;;;;;;;10.93;7.00;;;;;;;15.46;83.34;99476.34;5080624;28;20029;-65
2021/09/09 05:31:32;;;;;;;11.55;6.80;;;;;;;15.54;83.24;99469.03;5081089;28;20028;-64
2021/09/09 05:34:18;;;;;;;10.30;6.90;;;;;;;15.49;83.26;99473.59;5080797;28;20032;-64
2021/09/09 05:37:04;;;;;;;12.65;6.75;;;;;;;15.48;82.85;99464.91;5080237;28;20119;-65
2021/09/09 05:39:51;;;;;;;10.93;7.22;;;;;;;15.53;82.76;99456.88;5071988;28;20067;-65
2021/09/09 05:42:37;;;;;;;7.18;6.28;;;;;;;15.61;82.75;99467.81;5099648;28;20244;-65
2021/09/09 05:45:23;;;;;;;10.25;6.78;;;;;;;15.59;82.88;99458.34;5100968;28;20098;-65
2021/09/09 05:48:09;;;;;;;9.77;6.65;;;;;;;15.59;82.46;99464.44;5101193;28;20329;-65
2021/09/09 05:50:54;;;;;;;11.43;6.85;;;;;;;15.53;83.11;99465.56;5103288;28;20069;-65
2021/09/09 05:53:40;;;;;;;8.45;6.18;;;;;;;15.62;82.65;99472.13;5105245;28;20043;-65
2021/09/09 05:56:26;;;;;;;9.45;6.72;;;;;;;15.62;82.89;99474.75;5097177;28;20028;-66
2021/09/09 05:59:12;;;;;;;7.95;6.20;;;;;;;15.66;82.67;99470.22;5098495;28;20020;-66
2021/09/09 06:01:58;;;;;;;12.65;7.10;;;;;;;15.67;82.56;99469.31;5103823;28;20054;-65
2021/09/09 06:04:45;;;;;;;8.07;6.10;;;;;;;15.66;82.78;99476.31;5098382;28;20046;-65
2021/09/09 06:07:31;;;;;;;8.80;6.32;;;;;;;15.65;83.25;99477.22;5104562;28;20032;-65
2021/09/09 06:10:17;;;;;;;10.48;6.22;;;;;;;15.68;83.13;99474.44;5096235;28;20024;-65
2021/09/09 06:13:03;;;;;;;9.65;6.18;;;;;;;15.65;83.12;99478.97;5038500;28;20030;-65
2021/09/09 06:15:48;;;;;;;10.13;6.57;;;;;;;15.59;83.22;99471.41;5042566;28;20043;-65
2021/09/09 06:18:35;;;;;;;9.85;6.32;;;;;;;15.52;83.36;99463.03;5031410;28;20021;-65
2021/09/09 06:21:21;;;;;;;10.77;6.45;;;;;;;15.68;82.85;99478.84;5043906;28;20033;-65
2021/09/09 06:24:07;;;;;;;9.52;6.75;;;;;;;15.66;82.94;99465.84;5045217;28;20075;-65
2021/09/09 06:26:53;;;;;;;9.35;6.32;;;;;;;15.73;83.56;99479.47;5038255;28;20026;-65
2021/09/09 06:29:39;;;;;;;8.45;5.82;;;;;;;15.79;83.25;99473.13;5044389;28;20021;-65
2021/09/09 06:32:25;;;;;;;15.35;6.93;;;;;;;15.83;82.69;99475.56;5044618;28;20079;-65
2021/09/09 06:35:11;;;;;;;9.07;6.88;;;;;;;15.83;83.06;99469.47;5043328;28;20025;-64
2021/09/09 06:37:57;;;;;;;8.98;6.50;;;;;;;15.91;82.89;99477.78;5043235;28;20032;-65
2021/09/09 06:40:43;;;;;;;10.13;6.10;;;;;;;15.93;82.86;99485.56;5044253;28;20056;-66
2021/09/09 06:43:29;;;;;;;8.27;6.22;;;;;;;15.97;82.82;99474.88;5043565;28;20214;-65
2021/09/09 06:46:15;;;;;;;8.57;6.78;;;;;;;15.97;83.21;99480.09;5037486;28;20018;-66
2021/09/09 06:49:01;;;;;;;12.90;6.82;;;;;;;16.00;82.81;99485.22;5044986;28;20030;-66
2021/09/09 06:51:47;;;;;;;10.00;6.95;;;;;;;16.08;82.91;99482.22;5044731;28;20028;-66
2021/09/09 06:54:32;;;;;;;10.75;6.75;;;;;;;16.03;83.61;99481.59;5043185;28;20060;-66
2021/09/09 06:57:18;;;;;;;10.50;6.78;;;;;;;16.02;83.67;99483.38;5044760;28;20262;-65
2021/09/09 07:00:05;;;;;;;13.13;7.07;;;;;;;16.04;83.59;99481.50;5043517;28;20040;-65
2021/09/09 07:02:51;;;;;;;9.10;6.10;;;;;;;16.09;83.22;99483.06;5041818;28;20038;-64
2021/09/09 07:05:37;;;;;;;9.45;6.53;;;;;;;16.17;83.13;99483.56;5042320;28;20326;-65
2021/09/09 07:08:23;;;;;;;8.48;6.32;;;;;;;16.22;83.15;99473.72;5042369;28;20218;-65
2021/09/09 07:11:09;;;;;;;9.80;6.72;;;;;;;16.28;83.05;99485.66;5043156;28;20026;-65
2021/09/09 07:13:55;;;;;;;10.10;6.00;;;;;;;16.25;82.46;99491.88;5044481;28;20030;-65
2021/09/09 07:16:41;;;;;;;7.20;5.78;;;;;;;16.36;82.76;99501.78;5043454;28;20345;-67
2021/09/09 07:19:27;;;;;;;8.57;6.28;;;;;;;16.44;82.57;99501.44;5030645;28;20029;-64
2021/09/09 07:22:12;;;;;;;7.95;6.00;;;;;;;16.40;82.21;99498.13;5028991;28;20033;-65
2021/09/09 07:24:58;;;;;;;10.52;6.15;;;;;;;16.45;82.12;99501.38;5041830;28;20030;-64
2021/09/09 07:27:45;;;;;;;12.15;6.32;;;;;;;16.47;82.61;99507.34;5043945;28;20094;-64
2021/09/09 07:30:32;;;;;;;12.43;6.07;;;;;;;16.43;82.92;99497.97;5043479;28;20082;-65
2021/09/09 07:33:18;;;;;;;8.60;6.45;;;;;;;16.45;82.50;99496.13;5031551;28;20053;-65
2021/09/09 07:36:06;;;;;;;8.65;6.40;;;;;;;16.49;82.72;99512.50;5042216;28;20057;-66
2021/09/09 07:38:52;;;;;;;8.30;5.50;;;;;;;16.53;83.00;99503.59;5043487;28;20196;-65
2021/09/09 07:41:38;;;;;;;11.90;6.80;;;;;;;16.59;82.84;99508.53;5041638;28;20045;-66
2021/09/09 07:44:24;;;;;;;8.32;6.38;;;;;;;16.60;83.03;99510.22;5057572;28;20025;-65
2021/09/09 07:47:10;;;;;;;13.05;6.90;;;;;;;16.64;82.44;99516.97;5026049;28;20281;-65
2021/09/09 07:49:56;;;;;;;11.32;7.25;;;;;;;16.70;82.15;99506.25;5042378;28;20025;-64
2021/09/09 07:52:42;;;;;;;10.95;5.70;;;;;;;16.73;82.10;99510.44;5035135;28;20037;-65
2021/09/09 07:55:28;;;;;;;11.07;5.97;;;;;;;16.81;81.70;99510.09;5042408;28;20037;-65
2021/09/09 07:58:15;;;;;;;13.10;6.93;;;;;;;16.89;81.49;99511.41;5042224;28;20088;-65
2021/09/09 08:01:01;;;;;;;11.07;6.22;;;;;;;16.89;81.44;99516.66;5042947;28;20017;-65
2021/09/09 08:03:47;;;;;;;8.75;5.50;;;;;;;16.88;81.58;99514.13;5041796;28;20084;-65
2021/09/09 08:06:33;;;;;;;8.10;5.68;;;;;;;16.79;81.10;99506.69;5042130;28;20021;-66
2021/09/09 08:09:19;;;;;;;9.23;6.18;;;;;;;16.81;80.66;99505.69;5040907;28;20032;-65
2021/09/09 08:12:06;;;;;;;7.95;5.80;;;;;;;16.87;80.39;99512.38;5041445;28;20028;-65
2021/09/09 08:14:52;;;;;;;10.68;5.18;;;;;;;16.98;81.44;99515.34;5041320;28;20083;-65
2021/09/09 08:17:38;;;;;;;9.27;5.38;;;;;;;17.00;81.04;99515.25;5042092;28;20084;-65
2021/09/09 08:20:24;;;;;;;14.95;5.85;;;;;;;17.00;81.89;99518.72;5040510;28;20025;-66
2021/09/09 08:23:10;;;;;;;7.00;5.25;;;;;;;17.05;80.81;99524.56;5043251;28;20044;-66
2021/09/09 08:25:56;;;;;;;6.75;4.85;;;;;;;16.94;79.92;99520.81;5041704;28;20036;-65
2021/09/09 08:28:42;;;;;;;8.25;4.75;;;;;;;17.06;80.73;99526.25;5042246;28;20021;-65
2021/09/09 08:31:28;;;;;;;10.35;5.00;;;;;;;17.07;80.71;99521.88;5026733;28;20033;-67
2021/09/09 08:34:14;;;;;;;11.43;5.00;;;;;;;17.03;80.35;99522.94;5042397;28;20021;-65
2021/09/09 08:37:00;;;;;;;9.70;4.50;;;;;;;17.11;79.96;99510.31;5042103;28;20318;-66
2021/09/09 08:39:46;;;;;;;10.23;5.03;;;;;;;17.20;80.37;99509.84;5032173;28;20444;-66
2021/09/09 08:42:32;;;;;;;11.38;4.80;;;;;;;17.24;80.25;99516.63;5033361;28;20033;-66
2021/09/09 08:45:18;;;;;;;6.80;4.75;;;;;;;17.24;79.95;99510.53;5042045;28;20067;-66
2021/09/09 08:48:07;;;;;;;11.65;4.97;;;;;;;17.28;79.48;99513.84;5041711;28;20497;-67
2021/09/09 08:50:53;;;;;;;6.75;4.10;;;;;;;17.28;79.33;99519.91;5033801;28;20026;-66
2021/09/09 08:53:40;;;;;;;9.73;4.65;;;;;;;17.30;80.07;99530.31;5037284;28;20117;-66
2021/09/09 08:56:26;;;;;;;9.40;4.43;;;;;;;17.33;79.78;99520.53;5039958;28;20025;-66
2021/09/09 08:59:12;;;;;;;10.90;4.85;;;;;;;17.29;79.60;99520.75;5026936;28;20063;-66
2021/09/09 09:02:00;;;;;;;9.45;4.72;;;;;;;17.37;79.43;99522.06;5041302;28;20055;-66
2021/09/09 09:05:01;;;;;;;8.88;4.28;;;;;;;17.41;80.00;99525.34;5040755;28;20037;-67
2021/09/09 09:07:56;;;;;;;9.25;4.07;;;;;;;17.32;79.73;99503.13;5028091;28;20373;-66
2021/09/09 09:10:42;;;;;;;6.85;4.30;;;;;;;17.44;78.24;99522.56;5039958;28;20029;-66
2021/09/09 09:13:34;;;;;;;10.43;4.45;;;;;;;17.40;79.34;99521.03;5023700;28;20045;-66
2021/09/09 09:16:21;;;;;;;;;;;;;;;17.41;78.15;99523.59;5026842;28;20092;-66
2021/09/09 09:19:10;;;;;;;12.05;4.38;;;;;;;17.41;79.09;99539.31;5040706;28;19909;-66
2021/09/09 09:22:06;;;;;;;10.10;4.03;;;;;;;17.53;78.58;99523.84;5040813;28;20293;-66
2021/09/09 09:24:51;;;;;;;7.47;3.53;;;;;;;17.59;78.72;99534.03;5046163;28;20040;-65
2021/09/09 09:27:46;;;;;;;11.85;3.67;;;;;;;17.53;78.76;99523.84;5043390;28;20036;-66
2021/09/09 09:30:32;;;;;;;6.70;3.72;;;;;;;17.62;78.48;99535.66;5032101;28;20026;-66
2021/09/09 09:33:39;;;;;;;5.85;3.60;;;;;;;17.59;78.10;99528.78;5032005;28;20364;-66
2021/09/09 09:36:29;;;;;;;9.52;3.65;;;;;;;17.59;78.58;99524.38;5038775;28;20028;-66
2021/09/09 09:39:19;;;;;;;4.00;3.20;;;;;;;17.64;77.43;99528.53;5036175;28;20032;-65
2021/09/09 09:42:06;;;;;;;4.20;2.97;;;;;;;17.71;77.05;99529.91;5040444;28;20218;-65
2021/09/09 09:44:52;;;;;;;6.07;2.92;;;;;;;17.79;76.72;99534.75;5031313;28;20207;-65
2021/09/09 09:47:38;;;;;;;6.32;3.40;;;;;;;17.82;77.90;99526.72;5043706;28;20029;-66
2021/09/09 09:50:24;;;;;;;4.70;3.22;;;;;;;17.88;78.63;99532.44;5043471;28;20026;-66
2021/09/09 09:53:16;;;;;;;4.80;3.50;;;;;;;17.92;77.31;99530.56;5041993;28;20228;-66
2021/09/09 09:56:02;;;;;;;4.55;3.08;;;;;;;17.90;77.60;99530.63;5044655;28;20060;-65
2021/09/09 09:58:48;;;;;;;6.88;3.60;;;;;;;17.91;77.24;99537.56;5043064;28;20067;-66
2021/09/09 10:01:34;;;;;;;5.38;3.65;;;;;;;17.94;77.34;99526.06;5043030;28;20064;-65
2021/09/09 10:04:21;;;;;;;4.20;3.53;;;;;;;17.92;76.69;99536.63;5044523;28;20051;-65
2021/09/09 10:07:09;;;;;;;4.43;3.55;;;;;;;17.89;77.62;99535.94;5031782;28;20029;-65
2021/09/09 10:09:55;;;;;;;8.25;3.55;;;;;;;17.87;77.70;99528.16;5045534;28;20341;-65
2021/09/09 10:12:44;;;;;;;9.18;3.50;;;;;;;17.89;76.43;99534.16;5043729;28;20037;-66
2021/09/09 10:15:30;;;;;;;3.97;3.10;;;;;;;17.92;76.45;99539.25;5043104;28;20029;-66
2021/09/09 10:18:17;;;;;;;4.63;3.13;;;;;;;17.97;76.92;99541.66;5044065;28;20029;-65
2021/09/09 10:21:07;;;;;;;7.68;4.05;;;;;;;17.99;77.69;99541.56;5042688;28;20025;-65
2021/09/09 10:24:07;;;;;;;4.78;3.30;;;;;;;17.71;77.23;99498.47;5014115;28;20318;-66
2021/09/09 10:27:22;;;;;;;9.60;4.07;;;;;;;18.06;77.65;99543.75;5045237;28;20104;-66
2021/09/09 10:30:28;;;;;;;5.07;3.60;;;;;;;18.04;77.60;99535.13;5044204;28;20024;-66
2021/09/09 10:33:30;;;;;;;5.95;3.92;;;;;;;18.04;77.59;99535.13;5044386;28;20045;-66
2021/09/09 10:36:38;;;;;;;7.25;4.00;;;;;;;18.09;78.28;99548.81;5044949;28;20029;-66
2021/09/09 10:39:36;;;;;;;5.93;4.35;;;;;;;18.16;78.03;99545.88;5043879;28;20044;-65
2021/09/09 10:42:40;;;;;;;6.05;3.88;;;;;;;18.19;76.88;99540.47;5043264;28;20030;-66
2021/09/09 10:45:45;;;;;;;5.57;3.95;;;;;;;18.29;77.44;99547.72;5028626;28;20026;-66
2021/09/09 10:48:38;;;;;;;6.88;3.78;;;;;;;18.31;77.19;99539.75;5031078;28;20284;-67
2021/09/09 10:51:30;;;;;;;5.82;3.80;;;;;;;18.34;76.53;99539.63;5042618;28;20056;-67
2021/09/09 10:54:18;;;;;;;6.25;3.42;;;;;;;18.33;78.09;99553.63;5029874;28;20090;-66
2021/09/09 10:57:14;;;;;;;7.18;3.60;;;;;;;18.30;76.89;99524.97;5030810;28;20025;-66
2021/09/09 11:00:05;;;;;;;8.35;4.57;;;;;;;18.13;76.38;99501.47;5044397;28;20025;-66
2021/09/09 11:02:51;;;;;;;8.43;3.97;;;;;;;18.43;76.73;99546.09;5030627;28;20234;-66
2021/09/09 11:05:39;;;;;;;7.20;3.58;;;;;;;18.46;76.60;99545.94;5042606;28;20222;-66
2021/09/09 11:08:28;;;;;;;6.18;3.83;;;;;;;18.40;75.78;99554.16;5042690;28;20091;-65
2021/09/09 11:11:27;;;;;;;4.80;4.10;;;;;;;18.42;77.26;99558.34;5041928;28;20132;-66
2021/09/09 11:14:25;;;;;;;7.35;3.78;;;;;;;18.19;77.03;99514.25;5040968;28;20033;-66
2021/09/09 11:17:17;;;;;;;4.47;3.30;;;;;;;18.37;75.25;99549.06;5042501;28;20025;-65
2021/09/09 11:20:21;;;;;;;6.65;3.83;;;;;;;18.19;76.17;99528.19;5042713;28;20368;-65
2021/09/09 11:23:13;;;;;;;5.40;3.40;;;;;;;18.28;74.73;99529.44;5043613;28;20029;-65
2021/09/09 11:26:20;;;;;;;8.93;3.78;;;;;;;18.43;75.08;99559.22;5028823;28;20032;-66
2021/09/09 11:29:09;;;;;;;6.90;3.40;;;;;;;18.44;74.79;99556.50;5030676;28;20031;-67
2021/09/09 11:31:57;;;;;;;5.68;4.18;;;;;;;18.31;75.34;99533.69;5042586;28;20087;-67
2021/09/09 11:34:46;;;;;;;10.50;4.53;;;;;;;18.46;75.91;99559.88;5043363;28;20029;-67
2021/09/09 11:37:46;;;;;;;7.60;3.90;;;;;;;18.41;75.56;99561.06;5027998;28;20075;-65
2021/09/09 11:40:35;;;;;;;11.02;3.70;;;;;;;18.34;75.64;99557.09;5029584;28;20120;-66
2021/09/09 11:43:26;;;;;;;6.88;3.53;;;;;;;18.41;76.07;99571.56;5040236;28;20100;-66
2021/09/09 11:46:28;;;;;;;8.13;3.55;;;;;;;18.34;75.31;99551.84;5041029;28;20340;-66
2021/09/09 11:49:16;;;;;;;6.15;3.67;;;;;;;18.40;75.67;99559.41;5042533;28;20033;-66
2021/09/09 11:52:06;;;;;;;8.38;3.15;;;;;;;18.10;75.33;99520.84;5040429;28;20037;-66
2021/09/09 11:54:52;;;;;;;3.65;3.05;;;;;;;18.40;75.35;99565.47;5027653;28;20040;-66
2021/09/09 11:57:50;;;;;;;5.68;3.40;;;;;;;18.27;76.03;99556.59;5042824;28;20307;-66
2021/09/09 12:00:40;;;;;;;5.13;3.47;;;;;;;18.33;75.18;99558.88;5041889;28;20033;-65
2021/09/09 12:03:31;;;;;;;4.82;3.22;;;;;;;18.44;75.94;99564.38;5028739;28;20045;-66
2021/09/09 12:06:22;;;;;;;7.45;4.43;;;;;;;18.42;75.55;99565.38;5042423;28;20040;-66
2021/09/09 12:09:10;;;;;;;5.72;4.07;;;;;;;18.38;75.66;99561.25;5025788;28;20025;-66
2021/09/09 12:12:05;;;;;;;7.75;3.47;;;;;;;18.45;76.53;99555.59;5025976;28;20049;-66
2021/09/09 12:15:10;;;;;;;5.35;3.83;;;;;;;18.23;75.44;99507.91;5028386;28;20025;-66
2021/09/09 12:18:12;;;;;;;4.57;3.15;;;;;;;18.58;75.27;99566.22;5033953;28;20033;-65
2021/09/09 12:21:22;;;;;;;6.10;3.35;;;;;;;18.59;76.12;99570.53;5041177;28;20017;-67
2021/09/09 12:24:11;;;;;;;5.60;3.50;;;;;;;18.39;76.39;99515.75;5042801;28;20234;-66
2021/09/09 12:27:08;;;;;;;7.40;4.30;;;;;;;18.66;76.42;99565.78;5028825;28;20334;-66
2021/09/09 12:30:03;;;;;;;6.40;3.53;;;;;;;18.43;76.58;99525.13;5040802;28;20107;-66
2021/09/09 12:32:51;;;;;;;5.32;3.60;;;;;;;18.62;76.04;99559.84;5040953;28;20037;-65
2021/09/09 12:35:39;;;;;;;4.72;3.22;;;;;;;18.60;76.31;99566.13;5028301;28;20041;-65
2021/09/09 12:38:45;;;;;;;6.20;3.17;;;;;;;18.54;75.39;99562.09;5027444;28;20042;-66
2021/09/09 12:41:32;;;;;;;5.68;3.40;;;;;;;18.63;75.72;99560.72;5039189;28;20057;-66
2021/09/09 12:44:23;;;;;;;7.68;3.80;;;;;;;18.62;75.41;99559.84;5038764;28;20147;-65
2021/09/09 12:47:18;;;;;;;5.88;3.20;;;;;;;18.41;75.30;99519.97;5039169;28;20065;-66
2021/09/09 12:50:38;;;;;;;7.00;3.58;;;;;;;18.67;76.20;99566.63;5012326;28;20322;-66
2021/09/09 12:53:32;;;;;;;6.55;3.70;;;;;;;18.68;76.13;99566.53;5039418;28;20100;-67
2021/09/09 12:56:19;;;;;;;9.77;3.97;;;;;;;18.64;75.38;99562.41;5038973;28;20032;-67
2021/09/09 12:59:07;;;;;;;8.13;4.05;;;;;;;18.63;76.09;99566.78;5040679;28;20219;-67
2021/09/09 13:01:57;;;;;;;3.45;3.15;;;;;;;18.54;75.02;99556.84;5040885;28;20033;-67
2021/09/09 13:04:43;;;;;;;7.95;3.80;;;;;;;18.62;74.81;99566.88;5039785;28;20029;-67
2021/09/09 13:07:32;;;;;;;7.05;4.20;;;;;;;18.67;75.55;99564.84;5041225;28;20222;-67
2021/09/09 13:10:21;;;;;;;7.55;4.20;;;;;;;18.60;76.43;99564.34;5027585;28;20041;-66